GOSM

Ouro Sogui Airport

Matam, Senegal
METAR GOSM 152200Z 00000KT CAVOK 33/23 Q1012
Observed Flight Rules
Aug-15 @ 22:00 UTC (26 minutes ago) Visual Flight Rules
Visibility Clouds
10,000+ meters
  • Clear skies
Temperatures Readings
Current 33°C / 91°F
Dewpoint 23°C / 73°F
Humidity 56%
Altimeter 29.88" Hg
Pressure 1012 hPa
Elevation 17
METAR GOSM 152200Z 00000KT CAVOK 33/23 Q1012
Observed Flight Rules
Aug-15 @ 22:00 UTC
(26 minutes ago)
VFR
Clouds
  • Clear skies
Temperature Dewpoint
33°C / 91°F 23°C / 73°F
Humidity Altimeter Pressure
56% 29.88" Hg 1012 hPa